createdAt,value
2023-03-11T00:00:38.147Z,43.13
2023-03-11T00:03:28.171Z,49.50
2023-03-11T00:05:58.876Z,45.17
2023-03-11T00:08:26.606Z,47.70
2023-03-11T00:10:59.127Z,44.88
2023-03-11T00:13:28.005Z,42.55
2023-03-11T00:15:57.529Z,41.03
2023-03-11T00:18:27.283Z,42.97
2023-03-11T00:20:56.612Z,49.40
2023-03-11T00:23:25.383Z,46.35
2023-03-11T00:25:53.988Z,44.47
2023-03-11T00:28:25.652Z,43.38
2023-03-11T00:30:53.732Z,39.85
2023-03-11T00:33:21.737Z,41.22
2023-03-11T00:35:50.919Z,43.20
2023-03-11T00:38:21.646Z,40.45
2023-03-11T00:40:50.388Z,38.42
2023-03-11T00:43:18.309Z,42.22
2023-03-11T00:45:47.140Z,38.92
2023-03-11T00:48:16.363Z,41.25
2023-03-11T00:50:45.132Z,42.25
2023-03-11T00:53:13.197Z,36.50
2023-03-11T00:55:42.156Z,42.10
2023-03-11T00:58:14.566Z,41.17
2023-03-11T01:00:49.659Z,33.88
2023-03-11T01:03:17.458Z,36.03
2023-03-11T01:05:47.062Z,35.97
2023-03-11T01:08:14.971Z,32.67
2023-03-11T01:10:43.557Z,35.53
2023-03-11T01:13:11.534Z,32.90
2023-03-11T01:15:40.087Z,35.22
2023-03-11T01:18:08.003Z,37.05
2023-03-11T01:20:37.994Z,34.90
2023-03-11T01:23:07.086Z,35.60
2023-03-11T01:25:35.814Z,35.72
2023-03-11T01:28:04.644Z,33.38
2023-03-11T01:30:33.020Z,33.00
2023-03-11T01:33:00.951Z,34.28
2023-03-11T01:35:30.947Z,37.88
2023-03-11T01:37:59.547Z,33.90
2023-03-11T01:40:28.180Z,33.40
2023-03-11T01:42:58.226Z,36.35
2023-03-11T01:45:39.214Z,37.30
2023-03-11T01:48:09.851Z,33.78
2023-03-11T01:50:45.512Z,27.98
2023-03-11T01:53:16.265Z,38.47
2023-03-11T01:55:45.677Z,35.25
2023-03-11T01:58:19.353Z,35.60
2023-03-11T02:00:49.012Z,33.13
2023-03-11T02:03:28.680Z,37.72
2023-03-11T02:05:58.628Z,38.92
2023-03-11T02:08:26.790Z,38.15
2023-03-11T02:10:55.394Z,40.28
2023-03-11T02:13:23.502Z,36.22
2023-03-11T02:15:53.179Z,37.40
2023-03-11T02:18:22.620Z,35.88
2023-03-11T02:21:28.717Z,37.45
2023-03-11T02:24:15.602Z,36.80
2023-03-11T02:27:06.651Z,32.17
2023-03-11T02:29:35.144Z,34.75
2023-03-11T02:32:07.257Z,33.63
2023-03-11T02:34:38.590Z,34.85
2023-03-11T02:37:10.208Z,33.13
2023-03-11T02:39:42.723Z,31.13
2023-03-11T02:42:27.206Z,35.95
2023-03-11T02:45:16.633Z,31.75
2023-03-11T02:47:46.135Z,31.92
2023-03-11T02:50:16.424Z,29.63
2023-03-11T02:52:48.769Z,30.77
2023-03-11T02:55:18.372Z,33.55
2023-03-11T02:57:48.225Z,38.05
2023-03-11T03:00:18.466Z,34.70
2023-03-11T03:02:54.498Z,31.50
2023-03-11T03:05:23.497Z,33.55
2023-03-11T03:07:52.664Z,31.95
2023-03-11T03:10:24.253Z,30.42
2023-03-11T03:12:52.831Z,28.45
2023-03-11T03:15:20.711Z,30.77
2023-03-11T03:17:51.580Z,26.25
2023-03-11T03:20:21.056Z,25.35
2023-03-11T03:22:51.587Z,31.25
2023-03-11T03:25:23.146Z,33.42
2023-03-11T03:27:51.092Z,26.05
2023-03-11T03:30:19.940Z,27.30
2023-03-11T03:32:49.456Z,26.88
2023-03-11T03:35:18.601Z,25.63
2023-03-11T03:38:13.452Z,22.83
2023-03-11T03:40:47.788Z,19.92
2023-03-11T03:43:18.881Z,22.42
2023-03-11T03:45:56.270Z,21.80
2023-03-11T03:48:26.352Z,21.30
2023-03-11T03:50:54.720Z,22.38
2023-03-11T03:53:23.244Z,22.30
2023-03-11T03:55:51.151Z,18.27
2023-03-11T03:58:20.818Z,19.83
2023-03-11T04:00:49.135Z,17.13
2023-03-11T04:03:17.992Z,16.40
2023-03-11T04:05:52.619Z,18.75
2023-03-11T04:08:21.487Z,17.95
2023-03-11T04:11:01.902Z,16.50
2023-03-11T04:13:32.664Z,13.95
2023-03-11T04:16:03.980Z,13.68
2023-03-11T04:18:33.219Z,15.63
2023-03-11T04:21:06.230Z,15.82
2023-03-11T04:23:35.544Z,12.52
2023-03-11T04:26:04.425Z,15.15
2023-03-11T04:28:33.609Z,16.73
2023-03-11T04:31:01.658Z,14.02
2023-03-11T04:33:32.020Z,14.90
2023-03-11T04:36:00.370Z,12.77
2023-03-11T04:38:30.458Z,14.23
2023-03-11T04:41:06.129Z,12.95
2023-03-11T04:43:38.979Z,14.43
2023-03-11T04:46:07.362Z,14.38
2023-03-11T04:48:36.238Z,13.70
2023-03-11T04:51:04.694Z,13.13
2023-03-11T04:53:33.335Z,14.00
2023-03-11T04:56:01.228Z,13.32
2023-03-11T04:58:29.692Z,13.73
2023-03-11T05:00:58.457Z,13.25
2023-03-11T05:03:27.196Z,16.27
2023-03-11T05:05:56.992Z,14.63
2023-03-11T05:08:27.378Z,14.63
2023-03-11T05:10:55.489Z,14.18
2023-03-11T05:13:25.033Z,13.55
2023-03-11T05:15:54.002Z,10.75
2023-03-11T05:18:22.664Z,16.70
2023-03-11T05:20:53.826Z,13.32
2023-03-11T05:23:26.231Z,14.15
2023-03-11T05:25:54.310Z,13.82
2023-03-11T05:28:22.153Z,12.85
2023-03-11T05:30:52.998Z,13.00
2023-03-11T05:33:21.313Z,14.77
2023-03-11T05:35:52.255Z,13.88
2023-03-11T05:38:21.918Z,12.77
2023-03-11T05:40:49.870Z,12.05
2023-03-11T05:43:18.123Z,11.18
2023-03-11T05:45:52.440Z,12.00
2023-03-11T05:48:20.886Z,13.82
2023-03-11T05:50:48.641Z,11.80
2023-03-11T05:53:17.173Z,14.73
2023-03-11T05:55:45.247Z,15.60
2023-03-11T05:58:13.503Z,11.68
2023-03-11T06:00:41.698Z,12.63
2023-03-11T06:03:10.153Z,13.38
2023-03-11T06:05:38.247Z,12.00
2023-03-11T06:08:06.394Z,11.63
2023-03-11T06:10:34.815Z,10.38
2023-03-11T06:13:02.896Z,10.88
2023-03-11T06:15:36.297Z,12.02
2023-03-11T06:18:05.508Z,13.73
2023-03-11T06:20:34.219Z,10.63
2023-03-11T06:23:02.626Z,11.10
2023-03-11T06:25:30.432Z,13.80
2023-03-11T06:27:58.859Z,13.50
2023-03-11T06:30:27.578Z,13.85
2023-03-11T06:33:15.228Z,10.70
2023-03-11T06:35:44.177Z,14.15
2023-03-11T06:38:12.397Z,14.77
2023-03-11T06:40:41.036Z,12.68
2023-03-11T06:43:09.798Z,10.23
2023-03-11T06:45:40.772Z,10.88
2023-03-11T06:48:10.218Z,12.18
2023-03-11T06:50:39.111Z,16.35
2023-03-11T06:53:08.401Z,11.00
2023-03-11T06:55:37.339Z,12.43
2023-03-11T06:58:06.680Z,10.52
2023-03-11T07:00:34.744Z,10.77
2023-03-11T07:03:04.477Z,11.25
2023-03-11T07:05:32.834Z,9.75
2023-03-11T07:08:06.748Z,14.85
2023-03-11T07:10:36.122Z,11.38
2023-03-11T07:13:04.906Z,13.15
2023-03-11T07:15:32.737Z,12.68
2023-03-11T07:18:04.236Z,15.13
2023-03-11T07:20:32.128Z,14.15
2023-03-11T07:23:00.521Z,11.52
2023-03-11T07:25:28.736Z,14.65
2023-03-11T07:27:57.309Z,16.08
2023-03-11T07:30:25.409Z,15.80
2023-03-11T07:32:53.962Z,14.82
2023-03-11T07:35:21.683Z,14.45
2023-03-11T07:37:52.517Z,14.95
2023-03-11T07:40:21.089Z,15.38
2023-03-11T07:42:49.718Z,15.05
2023-03-11T07:45:19.342Z,16.75
2023-03-11T07:47:48.400Z,14.38
2023-03-11T07:50:17.414Z,18.35
2023-03-11T07:52:45.800Z,17.52
2023-03-11T07:55:13.586Z,16.65
2023-03-11T07:57:43.298Z,19.15
2023-03-11T08:00:13.321Z,20.92
2023-03-11T08:02:42.139Z,23.15
2023-03-11T08:05:10.886Z,20.17
2023-03-11T08:07:39.285Z,24.42
2023-03-11T08:10:08.077Z,21.23
2023-03-11T08:12:36.383Z,21.65
2023-03-11T08:15:05.028Z,20.35
2023-03-11T08:17:32.858Z,24.98
2023-03-11T08:20:01.191Z,21.77
2023-03-11T08:22:28.907Z,28.42
2023-03-11T08:24:57.437Z,25.17
2023-03-11T08:27:25.670Z,29.08
2023-03-11T08:29:53.697Z,31.15
2023-03-11T08:32:21.971Z,29.20
2023-03-11T08:34:50.422Z,29.20
2023-03-11T08:37:18.592Z,30.90
2023-03-11T08:39:46.601Z,28.90
2023-03-11T08:42:15.882Z,34.40
2023-03-11T08:44:44.675Z,36.97
2023-03-11T08:47:12.682Z,40.35
2023-03-11T08:49:41.339Z,42.35
2023-03-11T08:52:09.085Z,40.15
2023-03-11T08:54:37.187Z,43.10
2023-03-11T08:57:05.324Z,40.13
2023-03-11T08:59:33.843Z,47.88
2023-03-11T09:02:01.873Z,53.28
2023-03-11T09:04:30.630Z,53.58
2023-03-11T09:06:58.550Z,55.25
2023-03-11T09:09:27.106Z,53.78
2023-03-11T09:11:55.069Z,51.50
2023-03-11T09:14:23.754Z,55.90
2023-03-11T09:16:52.130Z,60.22
2023-03-11T09:19:20.105Z,59.97
2023-03-11T09:21:48.601Z,62.58
2023-03-11T09:24:17.268Z,62.13
2023-03-11T09:26:45.101Z,49.55
2023-03-11T09:29:13.308Z,54.70
2023-03-11T09:31:41.339Z,49.08
2023-03-11T09:34:15.116Z,45.00
2023-03-11T09:36:44.626Z,44.95
2023-03-11T09:39:12.725Z,48.20
2023-03-11T09:41:57.546Z,43.67
2023-03-11T09:45:04.250Z,45.03
2023-03-11T09:47:58.120Z,58.13
2023-03-11T09:50:35.833Z,56.78
2023-03-11T09:53:39.042Z,57.10
2023-03-11T09:58:40.575Z,76.32
2023-03-11T10:01:26.927Z,54.72
2023-03-11T10:04:08.446Z,47.90
2023-03-11T10:06:37.383Z,47.05
2023-03-11T10:09:30.422Z,46.33
2023-03-11T10:14:55.230Z,37.88
2023-03-11T10:17:34.444Z,36.90
2023-03-11T10:20:20.017Z,33.38
2023-03-11T10:23:02.622Z,22.67
2023-03-11T10:26:07.756Z,22.90
2023-03-11T10:28:54.364Z,20.90
2023-03-11T10:31:32.661Z,23.15
2023-03-11T10:34:16.340Z,23.38
2023-03-11T10:37:09.765Z,22.48
2023-03-11T10:39:38.311Z,19.10
2023-03-11T10:42:10.224Z,20.15
2023-03-11T10:44:40.498Z,15.50
2023-03-11T10:47:20.125Z,16.98
2023-03-11T10:49:48.466Z,20.20
2023-03-11T10:52:16.829Z,20.60
2023-03-11T10:54:48.724Z,19.15
2023-03-11T10:57:30.588Z,19.58
2023-03-11T11:00:00.679Z,18.67
2023-03-11T11:02:29.876Z,15.25
2023-03-11T11:05:16.791Z,14.07
2023-03-11T11:07:46.114Z,13.43
2023-03-11T11:10:18.984Z,10.27
2023-03-11T11:12:59.248Z,10.25
2023-03-11T11:15:34.068Z,9.77
2023-03-11T11:18:07.229Z,11.40
2023-03-11T11:20:35.396Z,8.50
2023-03-11T11:23:04.154Z,6.82
2023-03-11T11:25:36.899Z,9.95
2023-03-11T11:28:15.293Z,6.72
2023-03-11T11:31:03.980Z,6.93
2023-03-11T11:33:34.350Z,7.55
2023-03-11T11:36:05.225Z,9.85
2023-03-11T11:38:34.585Z,9.93
2023-03-11T11:41:05.316Z,8.73
2023-03-11T11:43:52.018Z,10.80
2023-03-11T11:46:41.696Z,9.20
2023-03-11T11:49:29.463Z,9.73
2023-03-11T11:52:09.061Z,9.82
2023-03-11T11:54:37.551Z,11.48
2023-03-11T11:57:14.650Z,12.77
2023-03-11T11:59:44.435Z,12.85
2023-03-11T12:02:37.972Z,12.43
2023-03-11T12:05:31.000Z,12.93
2023-03-11T12:08:02.430Z,12.57
2023-03-11T12:10:49.299Z,14.15
2023-03-11T12:14:00.722Z,15.15
2023-03-11T12:16:37.651Z,13.77
2023-03-11T12:19:05.687Z,13.32
2023-03-11T12:21:42.065Z,15.27
2023-03-11T12:24:31.849Z,15.85
2023-03-11T12:27:04.379Z,15.95
2023-03-11T12:29:39.775Z,16.85
2023-03-11T12:32:07.791Z,17.33
2023-03-11T12:34:36.558Z,11.73
2023-03-11T12:37:14.074Z,17.08
2023-03-11T12:39:42.624Z,17.20
2023-03-11T12:42:18.539Z,17.88
2023-03-11T12:44:48.564Z,15.90
2023-03-11T12:47:20.274Z,22.40
2023-03-11T12:49:55.148Z,17.92
2023-03-11T12:52:29.604Z,18.00
2023-03-11T12:55:01.367Z,20.52
2023-03-11T12:57:33.057Z,19.85
2023-03-11T13:00:18.503Z,21.70
2023-03-11T13:03:31.633Z,16.50
2023-03-11T13:06:23.758Z,22.13
2023-03-11T13:08:57.548Z,14.00
2023-03-11T13:11:44.253Z,19.77
2023-03-11T13:14:15.029Z,20.17
2023-03-11T13:16:44.576Z,16.40
2023-03-11T13:19:32.336Z,19.52
2023-03-11T13:22:02.652Z,18.88
2023-03-11T13:24:30.678Z,16.25
2023-03-11T13:27:07.209Z,19.50
2023-03-11T13:30:03.175Z,17.73
2023-03-11T13:33:09.441Z,18.40
2023-03-11T13:36:02.513Z,21.77
2023-03-11T13:38:33.627Z,21.95
2023-03-11T13:41:03.607Z,20.85
2023-03-11T13:43:31.913Z,17.95
2023-03-11T13:46:13.536Z,18.23
2023-03-11T13:48:47.114Z,20.05
2023-03-11T13:51:23.140Z,21.88
2023-03-11T13:53:58.330Z,19.95
2023-03-11T13:56:29.087Z,21.98
2023-03-11T13:59:17.237Z,18.88
2023-03-11T14:02:00.841Z,16.00
2023-03-11T14:04:34.772Z,12.13
2023-03-11T14:07:23.030Z,12.48
2023-03-11T14:09:51.607Z,15.23
2023-03-11T14:12:20.042Z,15.57
2023-03-11T14:14:54.157Z,11.50
2023-03-11T14:17:22.315Z,10.73
2023-03-11T14:20:07.201Z,10.95
2023-03-11T14:22:35.708Z,12.48
2023-03-11T14:25:11.364Z,11.52
2023-03-11T14:27:39.957Z,11.70
2023-03-11T14:30:09.687Z,15.38
2023-03-11T14:32:38.012Z,11.60
2023-03-11T14:35:20.969Z,15.43
2023-03-11T14:37:49.645Z,13.70
2023-03-11T14:40:42.260Z,14.25
2023-03-11T14:43:12.669Z,12.32
2023-03-11T14:45:42.378Z,14.65
2023-03-11T14:48:32.075Z,7.60
2023-03-11T14:51:03.341Z,10.05
2023-03-11T14:53:38.944Z,14.40
2023-03-11T14:56:19.421Z,9.02
2023-03-11T14:59:01.643Z,8.05
2023-03-11T15:01:41.438Z,9.20
2023-03-11T15:04:31.977Z,8.82
2023-03-11T15:07:01.177Z,9.38
2023-03-11T15:09:29.372Z,9.48
2023-03-11T15:11:59.922Z,8.90
2023-03-11T15:14:31.893Z,11.38
2023-03-11T15:17:33.926Z,9.55
2023-03-11T15:20:03.546Z,8.23
2023-03-11T15:22:41.679Z,6.28
2023-03-11T15:25:17.348Z,10.40
2023-03-11T15:27:46.246Z,6.55
2023-03-11T15:30:21.748Z,8.02
2023-03-11T15:32:50.486Z,7.82
2023-03-11T15:35:27.123Z,8.35
2023-03-11T15:38:14.053Z,11.52
2023-03-11T15:40:51.720Z,8.07
2023-03-11T15:43:24.341Z,7.78
2023-03-11T15:45:56.381Z,6.53
2023-03-11T15:48:25.382Z,10.63
2023-03-11T15:50:56.123Z,8.93
2023-03-11T15:53:25.892Z,11.00
2023-03-11T15:55:55.069Z,8.98
2023-03-11T15:58:23.352Z,7.03
2023-03-11T16:00:56.747Z,7.15
2023-03-11T16:03:25.270Z,8.48
2023-03-11T16:05:53.250Z,8.98
2023-03-11T16:08:22.618Z,9.38
2023-03-11T16:10:50.267Z,8.15
2023-03-11T16:13:18.833Z,7.03
2023-03-11T16:15:47.834Z,7.78
2023-03-11T16:18:16.595Z,8.10
2023-03-11T16:20:47.056Z,11.07
2023-03-11T16:23:50.223Z,7.32
2023-03-11T16:26:19.656Z,8.07
2023-03-11T16:28:49.961Z,9.98
2023-03-11T16:31:22.070Z,7.43
2023-03-11T16:33:51.263Z,8.38
2023-03-11T16:36:20.829Z,8.38
2023-03-11T16:38:50.509Z,8.43
2023-03-11T16:41:18.981Z,9.23
2023-03-11T16:43:47.234Z,8.85
2023-03-11T16:46:16.470Z,7.75
2023-03-11T16:48:45.093Z,8.48
2023-03-11T16:51:13.168Z,10.60
2023-03-11T16:53:41.481Z,11.15
2023-03-11T16:56:09.419Z,14.70
2023-03-11T16:58:37.893Z,12.52
2023-03-11T17:01:05.709Z,13.02
2023-03-11T17:03:42.004Z,16.10
2023-03-11T17:06:10.533Z,12.57
2023-03-11T17:08:39.099Z,11.15
2023-03-11T17:11:07.101Z,8.00
2023-03-11T17:13:35.659Z,11.55
2023-03-11T17:16:04.352Z,9.70
2023-03-11T17:18:32.675Z,11.18
2023-03-11T17:21:02.433Z,13.43
2023-03-11T17:23:30.769Z,12.23
2023-03-11T17:26:00.073Z,11.45
2023-03-11T17:28:29.127Z,13.57
2023-03-11T17:30:56.936Z,9.00
2023-03-11T17:33:25.454Z,11.18
2023-03-11T17:36:06.994Z,11.75
2023-03-11T17:38:35.308Z,12.75
2023-03-11T17:41:10.946Z,10.32
2023-03-11T17:43:39.724Z,16.70
2023-03-11T17:46:14.406Z,13.68
2023-03-11T17:48:44.097Z,9.25
2023-03-11T17:51:15.171Z,11.02
2023-03-11T17:53:45.866Z,12.82
2023-03-11T17:56:16.338Z,10.50
2023-03-11T17:58:44.778Z,13.63
2023-03-11T18:01:17.852Z,10.60
2023-03-11T18:03:46.337Z,12.25
2023-03-11T18:06:14.791Z,12.23
2023-03-11T18:08:43.021Z,10.93
2023-03-11T18:11:13.396Z,7.88
2023-03-11T18:13:41.973Z,10.82
2023-03-11T18:16:15.705Z,10.73
2023-03-11T18:18:45.181Z,10.23
2023-03-11T18:21:15.577Z,12.13
2023-03-11T18:23:44.407Z,12.15
2023-03-11T18:26:16.370Z,8.77
2023-03-11T18:28:44.838Z,12.70
2023-03-11T18:31:18.477Z,12.30
2023-03-11T18:33:52.093Z,12.23
2023-03-11T18:38:51.008Z,9.38
2023-03-11T18:41:19.065Z,7.68
2023-03-11T18:43:48.187Z,13.55
2023-03-11T18:46:16.453Z,14.25
2023-03-11T18:48:44.920Z,11.32
2023-03-11T18:51:13.005Z,10.77
2023-03-11T18:53:42.911Z,11.68
2023-03-11T18:56:15.307Z,10.40
2023-03-11T18:58:43.743Z,11.13
2023-03-11T19:01:14.572Z,14.57
2023-03-11T19:03:44.360Z,27.17
2023-03-11T19:06:13.826Z,16.30
2023-03-11T19:08:41.798Z,8.95
2023-03-11T19:11:11.928Z,9.65
2023-03-11T19:13:47.029Z,17.40
2023-03-11T19:16:18.013Z,8.52
2023-03-11T19:18:47.288Z,7.70
2023-03-11T19:21:16.408Z,8.63
2023-03-11T19:23:45.799Z,8.20
2023-03-11T19:26:13.795Z,8.35
2023-03-11T19:28:42.356Z,9.05
2023-03-11T19:31:10.332Z,9.57
2023-03-11T19:33:38.778Z,7.43
2023-03-11T19:36:07.755Z,13.02
2023-03-11T19:38:36.631Z,6.95
2023-03-11T19:41:09.814Z,10.93
2023-03-11T19:43:38.549Z,6.47
2023-03-11T19:46:08.348Z,7.43
2023-03-11T19:48:36.947Z,9.75
2023-03-11T19:51:06.107Z,12.50
2023-03-11T19:53:36.597Z,10.98
2023-03-11T19:56:05.256Z,9.45
2023-03-11T19:58:34.116Z,11.27
2023-03-11T20:01:02.460Z,12.32
2023-03-11T20:03:31.018Z,9.60
2023-03-11T20:06:04.971Z,10.55
2023-03-11T20:08:38.237Z,10.38
2023-03-11T20:11:07.111Z,11.10
2023-03-11T20:13:37.003Z,13.80
2023-03-11T20:16:07.463Z,11.52
2023-03-11T20:18:36.086Z,10.32
2023-03-11T20:21:08.875Z,16.45
2023-03-11T20:23:38.348Z,10.77
2023-03-11T20:26:08.456Z,12.68
2023-03-11T20:28:36.964Z,10.50
2023-03-11T20:31:09.782Z,12.30
2023-03-11T20:33:39.256Z,16.27
2023-03-11T20:36:10.178Z,16.25
2023-03-11T20:38:38.605Z,14.25
2023-03-11T20:41:08.398Z,14.30
2023-03-11T20:43:38.302Z,12.15
2023-03-11T20:46:07.821Z,14.98
2023-03-11T20:48:37.240Z,13.93
2023-03-11T20:51:07.969Z,13.13
2023-03-11T20:53:36.602Z,19.20
2023-03-11T20:56:13.275Z,18.55
2023-03-11T20:58:43.101Z,18.52
2023-03-11T21:01:16.944Z,13.73
2023-03-11T21:03:45.797Z,13.05
2023-03-11T21:06:20.038Z,15.38
2023-03-11T21:08:48.839Z,16.50
2023-03-11T21:11:18.200Z,14.57
2023-03-11T21:13:46.440Z,13.68
2023-03-11T21:16:14.513Z,13.07
2023-03-11T21:18:44.492Z,15.07
2023-03-11T21:21:13.980Z,18.05
2023-03-11T21:23:44.613Z,13.57
2023-03-11T21:26:14.307Z,14.23
2023-03-11T21:28:47.260Z,17.45
2023-03-11T21:31:20.978Z,14.63
2023-03-11T21:33:50.065Z,16.70
2023-03-11T21:36:18.242Z,19.42
2023-03-11T21:38:47.843Z,22.00
2023-03-11T21:41:21.326Z,14.88
2023-03-11T21:43:51.394Z,15.68
2023-03-11T21:46:22.193Z,14.15
2023-03-11T21:48:50.934Z,15.52
2023-03-11T21:51:19.514Z,15.70
2023-03-11T21:53:48.458Z,20.73
2023-03-11T21:56:16.451Z,13.82
2023-03-11T21:58:44.966Z,16.42
2023-03-11T22:01:13.022Z,17.10
2023-03-11T22:03:42.989Z,14.40
2023-03-11T22:06:12.642Z,16.25
2023-03-11T22:08:42.857Z,21.33
2023-03-11T22:11:17.958Z,9.98
2023-03-11T22:13:47.674Z,13.88
2023-03-11T22:16:16.185Z,16.70
2023-03-11T22:18:45.943Z,14.75
2023-03-11T22:21:17.791Z,15.07
2023-03-11T22:23:46.732Z,14.32
2023-03-11T22:26:23.167Z,15.10
2023-03-11T22:28:55.585Z,15.43
2023-03-11T22:31:24.641Z,18.27
2023-03-11T22:33:52.906Z,16.65
2023-03-11T22:36:20.788Z,16.25
2023-03-11T22:38:49.164Z,15.93
2023-03-11T22:41:19.867Z,16.17
2023-03-11T22:43:48.205Z,13.43
2023-03-11T22:46:16.421Z,13.85
2023-03-11T22:48:44.954Z,18.90
2023-03-11T22:51:13.392Z,15.70
2023-03-11T22:53:42.105Z,16.75
2023-03-11T22:56:12.674Z,17.27
2023-03-11T22:58:41.899Z,16.67
2023-03-11T23:01:10.714Z,16.15
2023-03-11T23:03:39.195Z,20.00
2023-03-11T23:06:08.914Z,19.45
2023-03-11T23:08:37.822Z,14.85
2023-03-11T23:11:08.134Z,18.58
2023-03-11T23:13:37.554Z,18.67
2023-03-11T23:16:08.355Z,15.13
2023-03-11T23:18:38.068Z,20.25
2023-03-11T23:21:06.334Z,19.40
2023-03-11T23:23:34.623Z,14.00
2023-03-11T23:26:08.595Z,13.30
2023-03-11T23:28:36.718Z,16.45
2023-03-11T23:31:05.325Z,14.77
2023-03-11T23:33:34.103Z,15.07
2023-03-11T23:36:03.700Z,15.98
2023-03-11T23:38:32.472Z,13.30
2023-03-11T23:41:00.441Z,17.25
2023-03-11T23:43:28.810Z,20.08
2023-03-11T23:45:56.632Z,16.67
2023-03-11T23:48:25.296Z,18.10
2023-03-11T23:50:53.347Z,15.15
2023-03-11T23:53:23.778Z,19.08
2023-03-11T23:55:52.316Z,18.45
2023-03-11T23:58:21.523Z,16.35
